LFPN METAR and TAF | Updated Today

LFPN METAR

Toussus-le-Noble Airport

Observation time: 5 min. ago

LFPN 291200Z AUTO 04008KT 310V090 CAVOK 14/03 Q1016 NOSIG

Need help? Read our tutorial on how to read METARs or read the parsed version below.

Toussus-le-Noble Airport (LFPN) METAR

  • Weather conditions on Sun, 29 May 2022 12:00:00 +0000 (5 min. ago):
  • Present conditions: Dry
  • Clouds: Clear skies
  • Visibility: Greater than 10 km
  • Wind: 40 degrees at 8 knots
  • Temperature: 14 celsius
  • Dew point: 3 celsius
  • Pressure: 1016 millibars
  • Remarks: None


Useful to know...

  • Codes: LFPN/TNF
  • Airport elevation: 538ft
  • Municipality: Toussus-le-Noble
  • Country: France
  • Continent: Europe